Meath Environmental Platform

Observations for Trim Patrick St

Time AQI Temp °C Hum % Pres Pa CO μg/m³ H₂S μg/m³ NO μg/m³ NO₂ μg/m³ O₃ μg/m³ SO₂ μg/m³ PM1 μg/m³ PM2.5 μg/m³ PM10 μg/m³
Tuesday 4 August 2026
08:52 2 22.4 75 38,460 0 0 2.03 0.68 21.53 6.38 2 4.82 5.31
08:51 2 22.3 74 38,460 0 0 1.96 0.09 17.51 6.28 2 4.89 5.38
08:50 1 22.3 75 38,460 0 0 2 0.13 19.94 6.53 2 4.85 5.33
08:49 2 22.3 75 38,460 0 0 2.02 0 19.87 6.42 2 4.84 5.32
08:48 1 22.2 75 38,460 0.01 0 1.99 0 12.75 6.13 2 4.84 5.33
08:47 1 22.2 77 38,460 0 0 2.14 0 27.54 6.74 2 4.72 5.19
08:46 2 22.1 75 38,460 0 0 2.1 0 12.05 6.09 2 4.81 5.29
08:45 2 22.1 77 38,460 0.01 0 2.15 0 20.36 6.45 2 5.4 5.94
08:44 2 22 77 38,460 0 0 2.13 0 13.9 6.22 2 4.73 5.2
08:43 2 22 76 38,460 0 0 2.16 0 17.62 6.16 2 5.47 6.02
08:42 2 21.9 76 38,460 0 0 2.16 0 16.11 5.63 2 4.75 5.22
08:41 2 21.9 77 38,460 0.01 0 2.16 0 17.55 5.61 2 4.74 5.21
08:40 2 21.9 78 38,460 0.01 0 2.3 0 23.62 6.58 2 4.63 5.1
08:39 1 21.8 77 38,460 0.01 0 2.2 0 19.58 6.15 2 4.72 5.19
08:38 1 21.8 77 38,460 0 0 2.2 0 13.26 6.14 2.86 6.1 6.71
08:37 1 21.8 78 38,460 0 0 2.16 0 22.64 6.03 2 4.65 5.11
08:36 1 21.7 77 38,460 0.02 0 2.12 0 11.58 5.77 2 4.69 5.16
08:35 2 21.7 79 38,460 0.08 0 2.15 0 16.95 5.85 2 4.61 5.07
08:34 2 21.7 80 38,460 0 0 2.26 0 27.38 5.19 2 4.49 4.94
08:33 2 21.6 78 38,460 0.02 0 2.08 0 9.13 4.59 2 5.36 5.89